Cote D IVoirian Star — A8SL4 — position and weather

sailwx.info

Track history (hours):
 
Tides and Currents Weather Stations Pressure Air Temp Water Temp Dewpoint Dewpoint Depression Visibility Wind Speed Wind Dir Waves Ship Positions

Cote D IVoirian Star

Last reported at 2015-Jun-28 09:25 UTC. Time now 2015-Jul-04 15:23 UTC.
Position N 27°48' W 016°22'.

Length 185 m; draft 8.4 m.

Type: Cargo ship. MMSI: 636014241.

Date/timePositionNaut miles runAvg speedWind from/ knotsBaromVisibWave heightAir tempDewpointWater temp
2015-Jun-28 09:25N 27°48' W 016°22'3619.6
2015-Jun-28 07:33N 28°20' W 016°02'2020.4
2015-Jun-28 06:33N 28°35' W 015°47'2019.7
2015-Jun-28 05:33N 28°54' W 015°38'2019.8
2015-Jun-28 04:33N 29°12' W 015°32'2019.8
2015-Jun-28 03:33N 29°32' W 015°25'2020.1
2015-Jun-28 02:33N 29°51' W 015°19'2020.0
2015-Jun-28 01:33N 30°10' W 015°13'2020.1
2015-Jun-28 00:33N 30°29' W 015°06'2820.0
2015-Jun-27 23:08N 30°57' W 014°57'1220.0
2015-Jun-27 22:33N 31°08' W 014°54'2220.3
2015-Jun-27 21:27N 31°29' W 014°46'1820.1
2015-Jun-27 20:33N 31°47' W 014°41'2820.2
2015-Jun-27 19:11N 32°13' W 014°32'1320.2
2015-Jun-27 18:33N 32°26' W 014°28'2020.4
2015-Jun-27 17:33N 32°45' W 014°21'2720.2
2015-Jun-27 16:14N 33°11' W 014°12'1319.8
2015-Jun-27 15:33N 33°24' W 014°08'2019.5
2015-Jun-27 14:33N 33°43' W 014°02'2319.7
2015-Jun-27 13:21N 34°05' W 013°54'1619.6
2015-Jun-27 12:33N 34°20' W 013°49'2019.5
2015-Jun-27 11:33N 34°39' W 013°42'2019.6
2015-Jun-27 10:33N 34°58' W 013°36'4319.7
2015-Jun-27 08:23N 35°39' W 013°21'2419.5
2015-Jun-27 07:10N 36°02' W 013°14'1219.5
2015-Jun-27 06:33N 36°13' W 013°09'2019.8
2015-Jun-27 05:34N 36°32' W 013°02'2020.0
2015-Jun-27 04:33N 36°52' W 012°56'2020.0
2015-Jun-27 03:33N 37°11' W 012°49'2020.3
2015-Jun-27 02:33N 37°31' W 012°42'2020.4
2015-Jun-27 01:33N 37°50' W 012°35'2020.1
2015-Jun-27 00:34N 38°09' W 012°28'2019.8
2015-Jun-26 23:33N 38°29' W 012°21'2019.8
2015-Jun-26 22:33N 38°47' W 012°14'2019.9
2015-Jun-26 21:33N 39°07' W 012°07'2020.0
2015-Jun-26 20:33N 39°26' W 012°00'2020.4
2015-Jun-26 19:33N 39°46' W 011°53'2020.1
2015-Jun-26 18:33N 40°05' W 011°46'2020.1
2015-Jun-26 17:33N 40°25' W 011°39'2020.2
2015-Jun-26 16:33N 40°44' W 011°32'2919.8
2015-Jun-26 15:05N 41°12' W 011°21'1019.9
2015-Jun-26 14:33N 41°22' W 011°17'2020.1
2015-Jun-26 13:33N 41°41' W 011°10'2019.9
2015-Jun-26 12:32N 42°01' W 011°02'33819.4
2015-Jun-25 19:09N 47°02' W 007°29'1219.3
2015-Jun-25 18:33N 47°13' W 007°21'7819.4
2015-Jun-25 14:33N 48°19' W 006°21'12818.2
2015-Jun-25 07:30N 49°40' W 003°49'4220.1
2015-Jun-25 05:26N 50°01' W 002°53'1719.4
2015-Jun-25 04:33N 50°05' W 002°27'1918.8
2015-Jun-25 03:32N 50°10' W 001°58'1817.9
2015-Jun-25 02:32N 50°15' W 001°32'1717.4
2015-Jun-25 01:33N 50°20' W 001°05'3918.1
2015-Jun-24 23:23N 50°31' W 000°07'1619.7
2015-Jun-24 22:33N 50°35' E 000°18'2019.8
2015-Jun-24 21:33N 50°44' E 000°46'2019.6
2015-Jun-24 20:33N 50°56' E 001°10'1818.5
2015-Jun-24 19:33N 51°07' E 001°33'1817.6
2015-Jun-24 18:34N 51°20' E 001°53'1414.1
2015-Jun-24 17:34N 51°20' E 002°16'1716.5
2015-Jun-24 16:33N 51°22' E 002°42'1110.7
2015-Jun-24 15:33N 51°23' E 002°59'1515.1
2015-Jun-24 14:33N 51°25' E 003°23'1211.6
2015-Jun-24 13:33N 51°26' E 003°42'10 9.5
2015-Jun-24 12:33N 51°23' E 003°57'10 9.5
2015-Jun-24 11:33N 51°24' E 004°12'9 8.7
2015-Jun-24 10:33N 51°16' E 004°17'0 0.4
2015-Jun-24 09:32N 51°16' E 004°17'1 1.3
2015-Jun-24 08:32N 51°16' E 004°15'0 0.0
2015-Jun-24 07:32N 51°16' E 004°15'0 0.0
2015-Jun-24 06:32N 51°16' E 004°15'0 0.0
2015-Jun-24 05:32N 51°16' E 004°15'0 0.0
2015-Jun-24 04:32N 51°16' E 004°15'0 0.0
2015-Jun-24 03:32N 51°16' E 004°15'0 0.0
2015-Jun-24 02:32N 51°16' E 004°15'0 0.0
2015-Jun-24 01:29N 51°16' E 004°15'0 0.0
2015-Jun-24 00:32N 51°16' E 004°15'0 0.0
2015-Jun-23 23:32N 51°16' E 004°15'0 0.0
2015-Jun-23 22:32N 51°16' E 004°15'0 0.0
2015-Jun-23 21:29N 51°16' E 004°15'0 0.0
2015-Jun-23 20:29N 51°16' E 004°15'0 0.0
2015-Jun-23 19:29N 51°16' E 004°15'0 0.0
2015-Jun-23 19:05N 51°16' E 004°15'0 0.0
2015-Jun-22 19:32N 51°16' E 004°15'0 0.0
2015-Jun-22 18:32N 51°16' E 004°15'0 0.0
2015-Jun-22 17:32N 51°16' E 004°15'0 0.0
2015-Jun-22 16:32N 51°16' E 004°15'0 0.0
2015-Jun-22 15:32N 51°16' E 004°15'0 0.0
2015-Jun-22 14:32N 51°16' E 004°15'0 0.0
2015-Jun-22 13:32N 51°16' E 004°15'0 0.3
2015-Jun-22 12:34N 51°16' E 004°15'1 1.3
2015-Jun-22 11:33N 51°16' E 004°17'3 3.4
2015-Jun-22 10:33N 51°19' E 004°16'9 9.3
2015-Jun-22 09:33N 51°23' E 004°03'8 8.5
2015-Jun-22 08:33N 51°21' E 003°50'1010.4
2015-Jun-22 07:33N 51°25' E 003°34'1313.5
2015-Jun-22 06:33N 51°24' E 003°13'1615.7
2015-Jun-22 05:34N 51°22' E 002°48'6 5.9
2015-Jun-22 04:34N 51°27' E 002°49'2 1.6
2015-Jun-22 03:33N 51°27' E 002°47'1 1.3
2015-Jun-22 02:33N 51°26' E 002°47'1 1.3
2015-Jun-22 01:33N 51°26' E 002°45'1 0.8
2015-Jun-22 00:33N 51°26' E 002°43'1211.6
2015-Jun-21 23:33N 51°21' E 002°27'1716.8
2015-Jun-21 22:33N 51°13' E 002°03'1817.7
2015-Jun-21 21:33N 51°03' E 001°40'1414.3
2015-Jun-21 20:34N 50°51' E 001°26'1817.9
2015-Jun-21 19:33N 50°37' E 001°10'7017.4
2015-Jun-21 15:33N 50°31' W 000°40'1515.3
2015-Jun-21 14:34N 50°40' W 000°58'10 9.6
2015-Jun-21 13:33N 50°48' W 001°07'1 0.9
2015-Jun-21 12:33N 50°49' W 001°05'0 0.0
2015-Jun-21 11:33N 50°49' W 001°05'0 0.0
2015-Jun-21 10:33N 50°49' W 001°05'0 0.0
2015-Jun-21 09:33N 50°49' W 001°05'0 0.0
2015-Jun-21 08:33N 50°49' W 001°05'0 0.0
2015-Jun-21 07:33N 50°49' W 001°05'0 0.0
2015-Jun-21 06:33N 50°49' W 001°05'0 0.0
2015-Jun-21 05:33N 50°49' W 001°05'0 0.0
2015-Jun-21 04:33N 50°49' W 001°05'0 0.0
2015-Jun-21 03:33N 50°49' W 001°05'0 0.0
2015-Jun-21 02:33N 50°49' W 001°05'0 0.0
2015-Jun-21 01:33N 50°49' W 001°05'0 0.0
2015-Jun-21 00:33N 50°49' W 001°05'0 0.0
2015-Jun-20 23:33N 50°49' W 001°05'0 0.0
2015-Jun-20 22:33N 50°49' W 001°05'0 0.0
2015-Jun-20 21:33N 50°49' W 001°05'0 0.0
2015-Jun-20 20:33N 50°49' W 001°05'0 0.0
2015-Jun-20 19:33N 50°49' W 001°05'2 1.6
2015-Jun-20 18:33N 50°47' W 001°06'9 9.0
2015-Jun-20 17:33N 50°40' W 000°59'1110.8
2015-Jun-20 16:34N 50°31' W 001°08'15419.1
2015-Jun-20 08:30N 49°11' W 004°32'2320.7
2015-Jun-20 07:23N 48°59' W 005°03'1720.9
2015-Jun-20 06:33N 48°51' W 005°26'4019.8
2015-Jun-20 04:33N 48°20' W 006°03'2120.4
2015-Jun-20 03:32N 48°03' W 006°21'2020.1
2015-Jun-20 02:32N 47°46' W 006°37'1919.5
2015-Jun-20 01:33N 47°30' W 006°52'1919.2
2015-Jun-20 00:33N 47°14' W 007°09'36218.6
2015-Jun-19 05:08N 41°54' W 011°05'1118.4
2015-Jun-19 04:33N 41°43' W 011°09'1918.7
2015-Jun-19 03:33N 41°26' W 011°15'1918.9
2015-Jun-19 02:33N 41°07' W 011°22'1918.7
2015-Jun-19 01:33N 40°49' W 011°29'1919.0
2015-Jun-19 00:33N 40°31' W 011°36'1919.2
2015-Jun-18 23:33N 40°12' W 011°42'1918.8
2015-Jun-18 22:33N 39°55' W 011°49'1918.6
2015-Jun-18 21:33N 39°37' W 011°56'1918.9
2015-Jun-18 20:33N 39°19' W 012°02'2018.8
2015-Jun-18 19:29N 38°59' W 012°09'1819.0
2015-Jun-18 18:31N 38°41' W 012°16'1919.3
2015-Jun-18 17:33N 38°23' W 012°22'1919.3
2015-Jun-18 16:33N 38°05' W 012°29'  
Track history (hours):
 
Tides and Currents Weather Stations Pressure Air Temp Water Temp Dewpoint Dewpoint Depression Visibility Wind Speed Wind Dir Waves Ship Positions

Cote D IVoirian Star

Last reported at 2015-Jun-28 09:25 UTC. Time now 2015-Jul-04 15:23 UTC.
Position N 27°48' W 016°22'.

Length 185 m; draft 8.4 m.

Type: Cargo ship. MMSI: 636014241.

Date/timePositionNaut miles runAvg speedWind from/ knotsBaromVisibWave heightAir tempDewpointWater temp
2015-Jun-28 09:25N 27°48' W 016°22'3619.6
2015-Jun-28 07:33N 28°20' W 016°02'2020.4
2015-Jun-28 06:33N 28°35' W 015°47'2019.7
2015-Jun-28 05:33N 28°54' W 015°38'2019.8
2015-Jun-28 04:33N 29°12' W 015°32'2019.8
2015-Jun-28 03:33N 29°32' W 015°25'2020.1
2015-Jun-28 02:33N 29°51' W 015°19'2020.0
2015-Jun-28 01:33N 30°10' W 015°13'2020.1
2015-Jun-28 00:33N 30°29' W 015°06'2820.0
2015-Jun-27 23:08N 30°57' W 014°57'1220.0
2015-Jun-27 22:33N 31°08' W 014°54'2220.3
2015-Jun-27 21:27N 31°29' W 014°46'1820.1
2015-Jun-27 20:33N 31°47' W 014°41'2820.2
2015-Jun-27 19:11N 32°13' W 014°32'1320.2
2015-Jun-27 18:33N 32°26' W 014°28'2020.4
2015-Jun-27 17:33N 32°45' W 014°21'2720.2
2015-Jun-27 16:14N 33°11' W 014°12'1319.8
2015-Jun-27 15:33N 33°24' W 014°08'2019.5
2015-Jun-27 14:33N 33°43' W 014°02'2319.7
2015-Jun-27 13:21N 34°05' W 013°54'1619.6
2015-Jun-27 12:33N 34°20' W 013°49'2019.5
2015-Jun-27 11:33N 34°39' W 013°42'2019.6
2015-Jun-27 10:33N 34°58' W 013°36'4319.7
2015-Jun-27 08:23N 35°39' W 013°21'2419.5
2015-Jun-27 07:10N 36°02' W 013°14'1219.5
2015-Jun-27 06:33N 36°13' W 013°09'2019.8
2015-Jun-27 05:34N 36°32' W 013°02'2020.0
2015-Jun-27 04:33N 36°52' W 012°56'2020.0
2015-Jun-27 03:33N 37°11' W 012°49'2020.3
2015-Jun-27 02:33N 37°31' W 012°42'2020.4
2015-Jun-27 01:33N 37°50' W 012°35'2020.1
2015-Jun-27 00:34N 38°09' W 012°28'2019.8
2015-Jun-26 23:33N 38°29' W 012°21'2019.8
2015-Jun-26 22:33N 38°47' W 012°14'2019.9
2015-Jun-26 21:33N 39°07' W 012°07'2020.0
2015-Jun-26 20:33N 39°26' W 012°00'2020.4
2015-Jun-26 19:33N 39°46' W 011°53'2020.1
2015-Jun-26 18:33N 40°05' W 011°46'2020.1
2015-Jun-26 17:33N 40°25' W 011°39'2020.2
2015-Jun-26 16:33N 40°44' W 011°32'2919.8
2015-Jun-26 15:05N 41°12' W 011°21'1019.9
2015-Jun-26 14:33N 41°22' W 011°17'2020.1
2015-Jun-26 13:33N 41°41' W 011°10'2019.9
2015-Jun-26 12:32N 42°01' W 011°02'33819.4
2015-Jun-25 19:09N 47°02' W 007°29'1219.3
2015-Jun-25 18:33N 47°13' W 007°21'7819.4
2015-Jun-25 14:33N 48°19' W 006°21'12818.2
2015-Jun-25 07:30N 49°40' W 003°49'4220.1
2015-Jun-25 05:26N 50°01' W 002°53'1719.4
2015-Jun-25 04:33N 50°05' W 002°27'1918.8
2015-Jun-25 03:32N 50°10' W 001°58'1817.9
2015-Jun-25 02:32N 50°15' W 001°32'1717.4
2015-Jun-25 01:33N 50°20' W 001°05'3918.1
2015-Jun-24 23:23N 50°31' W 000°07'1619.7
2015-Jun-24 22:33N 50°35' E 000°18'2019.8
2015-Jun-24 21:33N 50°44' E 000°46'2019.6
2015-Jun-24 20:33N 50°56' E 001°10'1818.5
2015-Jun-24 19:33N 51°07' E 001°33'1817.6
2015-Jun-24 18:34N 51°20' E 001°53'1414.1
2015-Jun-24 17:34N 51°20' E 002°16'1716.5
2015-Jun-24 16:33N 51°22' E 002°42'1110.7
2015-Jun-24 15:33N 51°23' E 002°59'1515.1
2015-Jun-24 14:33N 51°25' E 003°23'1211.6
2015-Jun-24 13:33N 51°26' E 003°42'10 9.5
2015-Jun-24 12:33N 51°23' E 003°57'10 9.5
2015-Jun-24 11:33N 51°24' E 004°12'9 8.7
2015-Jun-24 10:33N 51°16' E 004°17'0 0.4
2015-Jun-24 09:32N 51°16' E 004°17'1 1.3
2015-Jun-24 08:32N 51°16' E 004°15'0 0.0
2015-Jun-24 07:32N 51°16' E 004°15'0 0.0
2015-Jun-24 06:32N 51°16' E 004°15'0 0.0
2015-Jun-24 05:32N 51°16' E 004°15'0 0.0
2015-Jun-24 04:32N 51°16' E 004°15'0 0.0
2015-Jun-24 03:32N 51°16' E 004°15'0 0.0
2015-Jun-24 02:32N 51°16' E 004°15'0 0.0
2015-Jun-24 01:29N 51°16' E 004°15'0 0.0
2015-Jun-24 00:32N 51°16' E 004°15'0 0.0
2015-Jun-23 23:32N 51°16' E 004°15'0 0.0
2015-Jun-23 22:32N 51°16' E 004°15'0 0.0
2015-Jun-23 21:29N 51°16' E 004°15'0 0.0
2015-Jun-23 20:29N 51°16' E 004°15'0 0.0
2015-Jun-23 19:29N 51°16' E 004°15'0 0.0
2015-Jun-23 19:05N 51°16' E 004°15'0 0.0
2015-Jun-22 19:32N 51°16' E 004°15'0 0.0
2015-Jun-22 18:32N 51°16' E 004°15'0 0.0
2015-Jun-22 17:32N 51°16' E 004°15'0 0.0
2015-Jun-22 16:32N 51°16' E 004°15'0 0.0
2015-Jun-22 15:32N 51°16' E 004°15'0 0.0
2015-Jun-22 14:32N 51°16' E 004°15'0 0.0
2015-Jun-22 13:32N 51°16' E 004°15'0 0.3
2015-Jun-22 12:34N 51°16' E 004°15'1 1.3
2015-Jun-22 11:33N 51°16' E 004°17'3 3.4
2015-Jun-22 10:33N 51°19' E 004°16'9 9.3
2015-Jun-22 09:33N 51°23' E 004°03'8 8.5
2015-Jun-22 08:33N 51°21' E 003°50'1010.4
2015-Jun-22 07:33N 51°25' E 003°34'1313.5
2015-Jun-22 06:33N 51°24' E 003°13'1615.7
2015-Jun-22 05:34N 51°22' E 002°48'6 5.9
2015-Jun-22 04:34N 51°27' E 002°49'2 1.6
2015-Jun-22 03:33N 51°27' E 002°47'1 1.3
2015-Jun-22 02:33N 51°26' E 002°47'1 1.3
2015-Jun-22 01:33N 51°26' E 002°45'1 0.8
2015-Jun-22 00:33N 51°26' E 002°43'1211.6
2015-Jun-21 23:33N 51°21' E 002°27'1716.8
2015-Jun-21 22:33N 51°13' E 002°03'1817.7
2015-Jun-21 21:33N 51°03' E 001°40'1414.3
2015-Jun-21 20:34N 50°51' E 001°26'1817.9
2015-Jun-21 19:33N 50°37' E 001°10'7017.4
2015-Jun-21 15:33N 50°31' W 000°40'1515.3
2015-Jun-21 14:34N 50°40' W 000°58'10 9.6
2015-Jun-21 13:33N 50°48' W 001°07'1 0.9
2015-Jun-21 12:33N 50°49' W 001°05'0 0.0
2015-Jun-21 11:33N 50°49' W 001°05'0 0.0
2015-Jun-21 10:33N 50°49' W 001°05'0 0.0
2015-Jun-21 09:33N 50°49' W 001°05'0 0.0
2015-Jun-21 08:33N 50°49' W 001°05'0 0.0
2015-Jun-21 07:33N 50°49' W 001°05'0 0.0
2015-Jun-21 06:33N 50°49' W 001°05'0 0.0
2015-Jun-21 05:33N 50°49' W 001°05'0 0.0
2015-Jun-21 04:33N 50°49' W 001°05'0 0.0
2015-Jun-21 03:33N 50°49' W 001°05'0 0.0
2015-Jun-21 02:33N 50°49' W 001°05'0 0.0
2015-Jun-21 01:33N 50°49' W 001°05'0 0.0
2015-Jun-21 00:33N 50°49' W 001°05'0 0.0
2015-Jun-20 23:33N 50°49' W 001°05'0 0.0
2015-Jun-20 22:33N 50°49' W 001°05'0 0.0
2015-Jun-20 21:33N 50°49' W 001°05'0 0.0
2015-Jun-20 20:33N 50°49' W 001°05'0 0.0
2015-Jun-20 19:33N 50°49' W 001°05'2 1.6
2015-Jun-20 18:33N 50°47' W 001°06'9 9.0
2015-Jun-20 17:33N 50°40' W 000°59'1110.8
2015-Jun-20 16:34N 50°31' W 001°08'15419.1
2015-Jun-20 08:30N 49°11' W 004°32'2320.7
2015-Jun-20 07:23N 48°59' W 005°03'1720.9
2015-Jun-20 06:33N 48°51' W 005°26'4019.8
2015-Jun-20 04:33N 48°20' W 006°03'2120.4
2015-Jun-20 03:32N 48°03' W 006°21'2020.1
2015-Jun-20 02:32N 47°46' W 006°37'1919.5
2015-Jun-20 01:33N 47°30' W 006°52'1919.2
2015-Jun-20 00:33N 47°14' W 007°09'36218.6
2015-Jun-19 05:08N 41°54' W 011°05'1118.4
2015-Jun-19 04:33N 41°43' W 011°09'1918.7
2015-Jun-19 03:33N 41°26' W 011°15'1918.9
2015-Jun-19 02:33N 41°07' W 011°22'1918.7
2015-Jun-19 01:33N 40°49' W 011°29'1919.0
2015-Jun-19 00:33N 40°31' W 011°36'1919.2
2015-Jun-18 23:33N 40°12' W 011°42'1918.8
2015-Jun-18 22:33N 39°55' W 011°49'1918.6
2015-Jun-18 21:33N 39°37' W 011°56'1918.9
2015-Jun-18 20:33N 39°19' W 012°02'2018.8
2015-Jun-18 19:29N 38°59' W 012°09'1819.0
2015-Jun-18 18:31N 38°41' W 012°16'1919.3
2015-Jun-18 17:33N 38°23' W 012°22'1919.3
2015-Jun-18 16:33N 38°05' W 012°29'  

Dump ship's entire track history